createdAt,value
2022-12-18T00:01:23.879Z,17.67
2022-12-18T00:03:53.835Z,16.23
2022-12-18T00:06:25.270Z,18.23
2022-12-18T00:08:54.837Z,15.75
2022-12-18T00:11:26.016Z,16.88
2022-12-18T00:13:57.159Z,17.52
2022-12-18T00:16:27.401Z,16.70
2022-12-18T00:18:58.022Z,16.65
2022-12-18T00:21:28.741Z,17.83
2022-12-18T00:23:57.785Z,15.75
2022-12-18T00:26:28.235Z,15.15
2022-12-18T00:28:57.692Z,15.02
2022-12-18T00:31:27.245Z,12.68
2022-12-18T00:34:19.157Z,14.23
2022-12-18T00:36:50.279Z,14.82
2022-12-18T00:39:18.765Z,15.35
2022-12-18T00:42:04.299Z,16.05
2022-12-18T00:44:32.879Z,13.88
2022-12-18T00:47:01.382Z,16.20
2022-12-18T00:49:29.890Z,14.75
2022-12-18T00:51:59.827Z,15.95
2022-12-18T00:54:28.437Z,14.70
2022-12-18T00:56:57.180Z,15.57
2022-12-18T00:59:25.635Z,14.70
2022-12-18T01:01:54.175Z,13.93
2022-12-18T01:04:23.004Z,14.35
2022-12-18T01:06:51.789Z,14.63
2022-12-18T01:09:21.738Z,13.88
2022-12-18T01:11:50.488Z,14.73
2022-12-18T01:14:18.989Z,14.50
2022-12-18T01:16:47.570Z,13.45
2022-12-18T01:19:16.201Z,13.93
2022-12-18T01:21:44.866Z,14.20
2022-12-18T01:24:14.229Z,13.18
2022-12-18T01:26:44.111Z,13.60
2022-12-18T01:29:12.593Z,14.13
2022-12-18T01:31:41.188Z,14.05
2022-12-18T01:34:11.322Z,14.15
2022-12-18T01:36:41.003Z,15.02
2022-12-18T01:39:12.174Z,15.75
2022-12-18T01:41:58.604Z,13.73
2022-12-18T01:45:04.645Z,15.32
2022-12-18T01:47:37.533Z,14.95
2022-12-18T01:50:10.409Z,15.52
2022-12-18T01:52:39.869Z,15.93
2022-12-18T01:55:10.276Z,16.58
2022-12-18T01:57:40.005Z,18.90
2022-12-18T02:00:13.778Z,18.90
2022-12-18T02:05:13.987Z,18.70
2022-12-18T02:07:54.247Z,18.65
2022-12-18T02:10:29.159Z,19.10
2022-12-18T02:13:06.065Z,19.70
2022-12-18T02:15:40.811Z,19.45
2022-12-18T02:18:13.502Z,21.85
2022-12-18T02:20:47.297Z,19.58
2022-12-18T02:23:26.360Z,19.90
2022-12-18T02:26:08.558Z,18.92
2022-12-18T02:28:43.260Z,20.25
2022-12-18T02:31:18.158Z,21.38
2022-12-18T02:33:47.678Z,21.92
2022-12-18T02:36:19.438Z,20.80
2022-12-18T02:38:48.976Z,19.65
2022-12-18T02:41:20.047Z,21.75
2022-12-18T02:43:55.714Z,21.95
2022-12-18T02:46:30.891Z,20.90
2022-12-18T02:49:08.782Z,24.25
2022-12-18T02:51:48.220Z,23.17
2022-12-18T02:54:28.892Z,21.13
2022-12-18T02:57:05.635Z,20.65
2022-12-18T02:59:42.625Z,21.23
2022-12-18T03:02:23.801Z,22.80
2022-12-18T03:05:02.500Z,22.52
2022-12-18T03:07:39.999Z,21.05
2022-12-18T03:10:13.914Z,20.83
2022-12-18T03:12:49.812Z,23.85
2022-12-18T03:15:23.950Z,20.83
2022-12-18T03:17:57.276Z,21.50
2022-12-18T03:20:28.224Z,20.37
2022-12-18T03:23:03.455Z,21.25
2022-12-18T03:25:33.544Z,18.35
2022-12-18T03:28:05.463Z,19.63
2022-12-18T03:30:37.139Z,19.23
2022-12-18T03:33:12.628Z,18.15
2022-12-18T03:35:44.096Z,18.95
2022-12-18T03:38:13.020Z,19.88
2022-12-18T03:40:51.453Z,17.90
2022-12-18T03:43:30.732Z,16.55
2022-12-18T03:46:07.101Z,17.13
2022-12-18T03:48:43.979Z,18.52
2022-12-18T03:51:17.101Z,17.08
2022-12-18T03:53:52.786Z,17.20
2022-12-18T03:56:24.643Z,17.88
2022-12-18T03:58:56.389Z,16.55
2022-12-18T04:01:31.844Z,17.85
2022-12-18T04:04:02.655Z,17.63
2022-12-18T04:06:32.716Z,15.63
2022-12-18T04:09:01.845Z,16.58
2022-12-18T04:11:30.364Z,14.30
2022-12-18T04:14:04.675Z,14.75
2022-12-18T04:16:35.455Z,15.55
2022-12-18T04:19:04.096Z,14.70
2022-12-18T04:21:32.846Z,15.77
2022-12-18T04:24:01.332Z,15.63
2022-12-18T04:26:29.841Z,15.75
2022-12-18T04:28:58.294Z,15.93
2022-12-18T04:31:28.496Z,15.93
2022-12-18T04:33:57.038Z,16.90
2022-12-18T04:36:33.040Z,16.15
2022-12-18T04:39:01.497Z,15.25
2022-12-18T04:41:29.950Z,14.10
2022-12-18T04:43:58.572Z,14.43
2022-12-18T04:46:28.505Z,14.07
2022-12-18T04:48:57.030Z,15.15
2022-12-18T04:51:26.764Z,14.35
2022-12-18T04:53:55.959Z,15.13
2022-12-18T04:56:24.683Z,15.27
2022-12-18T04:58:53.164Z,15.45
2022-12-18T05:01:22.060Z,14.48
2022-12-18T05:03:53.373Z,15.18
2022-12-18T05:06:21.894Z,18.02
2022-12-18T05:08:50.529Z,14.27
2022-12-18T05:11:19.287Z,15.23
2022-12-18T05:13:48.017Z,13.60
2022-12-18T05:16:17.295Z,15.50
2022-12-18T05:18:45.817Z,17.23
2022-12-18T05:21:15.678Z,14.38
2022-12-18T05:23:44.398Z,15.10
2022-12-18T05:26:17.601Z,15.27
2022-12-18T05:28:46.922Z,16.05
2022-12-18T05:31:16.049Z,15.45
2022-12-18T05:33:44.647Z,15.38
2022-12-18T05:36:13.323Z,17.25
2022-12-18T05:38:43.409Z,16.52
2022-12-18T05:41:12.126Z,15.65
2022-12-18T05:43:42.244Z,16.73
2022-12-18T05:46:14.452Z,17.10
2022-12-18T05:48:43.272Z,16.52
2022-12-18T05:51:15.446Z,18.23
2022-12-18T05:53:45.859Z,16.38
2022-12-18T05:56:16.815Z,17.23
2022-12-18T05:58:45.872Z,18.02
2022-12-18T06:01:17.104Z,17.75
2022-12-18T06:03:46.466Z,17.23
2022-12-18T06:06:17.155Z,17.30
2022-12-18T06:08:47.607Z,17.58
2022-12-18T06:11:19.872Z,18.05
2022-12-18T06:13:48.728Z,19.02
2022-12-18T06:16:17.196Z,18.70
2022-12-18T06:18:45.688Z,19.38
2022-12-18T06:21:14.319Z,16.23
2022-12-18T06:23:43.210Z,17.80
2022-12-18T06:26:14.722Z,18.02
2022-12-18T06:28:43.817Z,19.05
2022-12-18T06:31:12.841Z,17.08
2022-12-18T06:33:42.021Z,17.90
2022-12-18T06:36:13.808Z,19.77
2022-12-18T06:38:44.321Z,18.70
2022-12-18T06:41:16.683Z,19.42
2022-12-18T06:43:45.768Z,17.25
2022-12-18T06:46:14.790Z,18.73
2022-12-18T06:48:43.711Z,17.92
2022-12-18T06:51:12.856Z,18.55
2022-12-18T06:53:41.665Z,17.33
2022-12-18T06:56:11.182Z,17.30
2022-12-18T06:58:41.660Z,16.95
2022-12-18T07:01:12.372Z,17.88
2022-12-18T07:03:42.482Z,17.38
2022-12-18T07:06:16.066Z,19.33
2022-12-18T07:08:44.660Z,18.83
2022-12-18T07:11:13.236Z,19.23
2022-12-18T07:13:43.499Z,19.35
2022-12-18T07:16:19.635Z,18.77
2022-12-18T07:18:51.090Z,17.17
2022-12-18T07:21:21.607Z,18.35
2022-12-18T07:23:50.275Z,18.02
2022-12-18T07:26:21.000Z,17.38
2022-12-18T07:28:55.574Z,18.38
2022-12-18T07:31:24.420Z,17.45
2022-12-18T07:33:53.498Z,16.90
2022-12-18T07:36:26.005Z,15.82
2022-12-18T07:38:54.541Z,17.42
2022-12-18T07:41:23.165Z,17.48
2022-12-18T07:43:53.252Z,18.00
2022-12-18T07:46:21.840Z,17.02
2022-12-18T07:48:51.033Z,15.70
2022-12-18T07:51:20.165Z,17.58
2022-12-18T07:53:52.190Z,17.25
2022-12-18T07:56:27.752Z,17.50
2022-12-18T07:58:58.910Z,19.70
2022-12-18T08:01:27.585Z,17.75
2022-12-18T08:03:56.494Z,17.08
2022-12-18T08:06:25.140Z,17.42
2022-12-18T08:08:54.876Z,17.10
2022-12-18T08:11:24.323Z,21.58
2022-12-18T08:13:53.192Z,17.52
2022-12-18T08:16:24.472Z,18.67
2022-12-18T08:18:54.619Z,16.75
2022-12-18T08:21:25.460Z,15.65
2022-12-18T08:23:55.907Z,14.57
2022-12-18T08:26:26.345Z,16.33
2022-12-18T08:28:56.647Z,16.55
2022-12-18T08:31:28.477Z,17.52
2022-12-18T08:33:58.116Z,17.50
2022-12-18T08:36:27.413Z,15.43
2022-12-18T08:38:56.308Z,15.77
2022-12-18T08:41:24.999Z,17.15
2022-12-18T08:44:11.193Z,15.13
2022-12-18T08:46:43.834Z,15.52
2022-12-18T08:49:13.261Z,15.50
2022-12-18T08:51:42.028Z,16.30
2022-12-18T08:54:13.694Z,14.48
2022-12-18T08:56:42.194Z,16.42
2022-12-18T08:59:15.937Z,30.45
2022-12-18T09:01:49.771Z,15.13
2022-12-18T09:04:19.127Z,15.52
2022-12-18T09:06:47.742Z,15.98
2022-12-18T09:09:16.312Z,17.00
2022-12-18T09:11:44.846Z,14.70
2022-12-18T09:14:13.442Z,15.85
2022-12-18T09:16:41.999Z,15.57
2022-12-18T09:19:12.210Z,16.95
2022-12-18T09:21:46.132Z,18.88
2022-12-18T09:24:21.454Z,16.88
2022-12-18T09:26:52.533Z,18.65
2022-12-18T09:29:24.688Z,16.48
2022-12-18T09:31:53.140Z,16.30
2022-12-18T09:34:23.107Z,17.13
2022-12-18T09:36:52.268Z,16.33
2022-12-18T09:39:21.863Z,18.08
2022-12-18T09:41:55.424Z,17.55
2022-12-18T09:44:30.270Z,15.57
2022-12-18T09:47:10.529Z,15.73
2022-12-18T09:49:44.419Z,16.67
2022-12-18T09:52:18.188Z,15.55
2022-12-18T09:54:59.524Z,15.48
2022-12-18T09:57:28.501Z,16.52
2022-12-18T10:00:01.312Z,16.70
2022-12-18T10:02:33.646Z,18.48
2022-12-18T10:05:13.343Z,16.90
2022-12-18T10:07:52.255Z,18.42
2022-12-18T10:10:38.563Z,18.50
2022-12-18T10:13:17.627Z,18.23
2022-12-18T10:15:56.401Z,15.55
2022-12-18T10:18:40.266Z,16.60
2022-12-18T10:21:17.827Z,16.58
2022-12-18T10:23:58.905Z,17.00
2022-12-18T10:26:27.582Z,19.25
2022-12-18T10:29:02.193Z,16.38
2022-12-18T10:31:34.037Z,16.65
2022-12-18T10:34:02.812Z,18.33
2022-12-18T10:36:32.784Z,16.50
2022-12-18T10:39:17.299Z,17.33
2022-12-18T10:41:45.829Z,16.63
2022-12-18T10:44:19.493Z,19.02
2022-12-18T10:46:50.416Z,17.98
2022-12-18T10:49:25.436Z,17.65
2022-12-18T10:52:07.361Z,19.00
2022-12-18T10:54:37.220Z,16.52
2022-12-18T10:57:19.973Z,17.17
2022-12-18T10:59:54.436Z,18.90
2022-12-18T11:02:35.403Z,17.60
2022-12-18T11:05:06.373Z,17.10
2022-12-18T11:07:52.566Z,17.23
2022-12-18T11:10:23.040Z,18.88
2022-12-18T11:12:51.804Z,18.05
2022-12-18T11:15:23.163Z,18.65
2022-12-18T11:17:53.545Z,17.25
2022-12-18T11:20:32.644Z,18.58
2022-12-18T11:23:05.011Z,16.23
2022-12-18T11:25:36.139Z,19.45
2022-12-18T11:28:06.898Z,17.15
2022-12-18T11:30:37.308Z,17.33
2022-12-18T11:33:09.421Z,16.33
2022-12-18T11:35:45.014Z,16.25
2022-12-18T11:38:23.869Z,16.08
2022-12-18T11:40:58.725Z,15.77
2022-12-18T11:43:32.091Z,17.23
2022-12-18T11:46:07.767Z,17.08
2022-12-18T11:48:43.499Z,16.00
2022-12-18T11:51:18.530Z,17.27
2022-12-18T11:53:48.885Z,15.25
2022-12-18T11:56:32.003Z,16.70
2022-12-18T11:59:11.077Z,16.17
2022-12-18T12:01:51.052Z,17.02
2022-12-18T12:04:41.084Z,17.48
2022-12-18T12:07:24.842Z,16.30
2022-12-18T12:10:05.439Z,14.32
2022-12-18T12:12:50.561Z,16.60
2022-12-18T12:15:30.809Z,15.77
2022-12-18T12:18:11.326Z,14.73
2022-12-18T12:20:51.612Z,15.57
2022-12-18T12:23:32.629Z,14.77
2022-12-18T12:26:08.138Z,16.75
2022-12-18T12:28:58.270Z,17.60
2022-12-18T12:31:41.852Z,27.73
2022-12-18T12:34:20.017Z,17.00
2022-12-18T12:37:03.406Z,16.95
2022-12-18T12:39:37.491Z,18.23
2022-12-18T12:42:33.996Z,16.08
2022-12-18T12:45:07.716Z,15.45
2022-12-18T12:47:42.468Z,16.88
2022-12-18T12:52:48.214Z,16.00
2022-12-18T12:55:21.519Z,16.67
2022-12-18T12:58:00.329Z,17.08
2022-12-18T13:00:38.844Z,16.85
2022-12-18T13:03:17.156Z,16.00
2022-12-18T13:05:53.043Z,16.60
2022-12-18T13:08:26.688Z,13.88
2022-12-18T13:13:52.948Z,14.50
2022-12-18T13:16:23.901Z,15.80
2022-12-18T13:18:55.363Z,17.25
2022-12-18T13:21:29.598Z,16.00
2022-12-18T13:26:59.277Z,18.67
2022-12-18T13:29:45.985Z,14.88
2022-12-18T13:32:32.535Z,18.05
2022-12-18T13:35:40.314Z,18.73
2022-12-18T13:38:23.571Z,18.48
2022-12-18T13:40:59.864Z,19.75
2022-12-18T13:43:35.095Z,18.27
2022-12-18T13:46:07.751Z,17.80
2022-12-18T13:48:41.435Z,17.45
2022-12-18T13:51:13.116Z,16.30
2022-12-18T13:53:46.733Z,17.38
2022-12-18T13:56:24.157Z,15.77
2022-12-18T13:59:13.383Z,16.95
2022-12-18T14:01:52.647Z,17.42
2022-12-18T14:04:25.608Z,19.27
2022-12-18T14:06:57.533Z,18.13
2022-12-18T14:09:30.699Z,17.25
2022-12-18T14:14:50.493Z,19.58
2022-12-18T14:17:22.285Z,18.55
2022-12-18T14:19:53.678Z,17.92
2022-12-18T14:22:28.842Z,19.55
2022-12-18T14:25:18.083Z,18.70
2022-12-18T14:27:49.547Z,20.02
2022-12-18T14:30:35.230Z,17.83
2022-12-18T14:33:07.204Z,18.88
2022-12-18T14:35:39.079Z,20.05
2022-12-18T14:38:21.872Z,19.40
2022-12-18T14:40:54.926Z,19.23
2022-12-18T14:43:24.909Z,19.42
2022-12-18T14:45:55.988Z,18.50
2022-12-18T14:48:35.868Z,17.05
2022-12-18T14:51:07.420Z,17.20
2022-12-18T14:53:40.281Z,16.92
2022-12-18T14:56:18.823Z,18.25
2022-12-18T14:58:49.463Z,16.20
2022-12-18T15:01:28.503Z,17.42
2022-12-18T15:03:59.150Z,17.00
2022-12-18T15:06:32.747Z,18.33
2022-12-18T15:09:02.981Z,17.55
2022-12-18T15:11:45.689Z,17.83
2022-12-18T15:14:35.693Z,16.25
2022-12-18T15:17:08.778Z,16.63
2022-12-18T15:19:40.993Z,17.95
2022-12-18T15:22:25.144Z,15.75
2022-12-18T15:24:54.839Z,17.25
2022-12-18T15:27:32.935Z,16.50
2022-12-18T15:30:25.232Z,18.10
2022-12-18T15:33:19.481Z,16.38
2022-12-18T15:35:48.001Z,17.38
2022-12-18T15:38:16.603Z,16.75
2022-12-18T15:40:45.113Z,18.55
2022-12-18T15:43:31.521Z,18.10
2022-12-18T15:46:00.498Z,17.85
2022-12-18T15:48:30.592Z,18.13
2022-12-18T15:50:59.909Z,17.95
2022-12-18T15:53:33.232Z,18.00
2022-12-18T15:56:19.429Z,18.92
2022-12-18T15:58:48.762Z,20.45
2022-12-18T16:01:17.570Z,19.83
2022-12-18T16:03:47.662Z,18.23
2022-12-18T16:06:16.197Z,17.38
2022-12-18T16:08:44.713Z,17.38
2022-12-18T16:11:38.853Z,17.38
2022-12-18T16:14:14.940Z,19.63
2022-12-18T16:16:43.706Z,28.50
2022-12-18T16:19:13.602Z,20.02
2022-12-18T16:21:42.204Z,17.23
2022-12-18T16:24:16.914Z,18.55
2022-12-18T16:26:45.925Z,16.88
2022-12-18T16:29:14.408Z,16.88
2022-12-18T16:31:43.172Z,16.45
2022-12-18T16:34:23.465Z,17.92
2022-12-18T16:36:57.935Z,18.48
2022-12-18T16:39:31.168Z,18.10
2022-12-18T16:42:00.085Z,17.02
2022-12-18T16:44:30.457Z,16.10
2022-12-18T16:47:02.784Z,16.40
2022-12-18T16:49:33.420Z,16.55
2022-12-18T16:52:05.455Z,17.80
2022-12-18T16:54:35.128Z,17.50
2022-12-18T17:00:15.025Z,19.92
2022-12-18T17:02:44.145Z,16.13
2022-12-18T17:05:14.193Z,17.42
2022-12-18T17:07:42.732Z,16.73
2022-12-18T17:10:11.564Z,16.15
2022-12-18T17:12:40.324Z,16.73
2022-12-18T17:15:10.897Z,16.63
2022-12-18T17:17:39.438Z,18.63
2022-12-18T17:20:08.826Z,20.42
2022-12-18T17:22:38.677Z,18.08
2022-12-18T17:25:07.553Z,21.98
2022-12-18T17:27:36.041Z,18.83
2022-12-18T17:30:05.758Z,17.30
2022-12-18T17:32:34.312Z,18.38
2022-12-18T17:35:06.989Z,17.92
2022-12-18T17:37:35.918Z,18.70
2022-12-18T17:40:07.089Z,17.85
2022-12-18T17:42:35.555Z,16.80
2022-12-18T17:45:04.370Z,18.20
2022-12-18T17:47:32.827Z,21.85
2022-12-18T17:50:01.308Z,18.95
2022-12-18T17:52:29.789Z,19.38
2022-12-18T17:54:58.244Z,19.77
2022-12-18T17:57:28.090Z,19.70
2022-12-18T17:59:56.597Z,19.38
2022-12-18T18:02:25.682Z,19.42
2022-12-18T18:04:55.615Z,18.73
2022-12-18T18:07:24.169Z,18.88
2022-12-18T18:09:52.674Z,18.52
2022-12-18T18:12:46.788Z,19.75
2022-12-18T18:15:16.796Z,18.15
2022-12-18T18:17:45.879Z,17.63
2022-12-18T18:20:22.357Z,18.20
2022-12-18T18:22:51.793Z,19.88
2022-12-18T18:25:20.402Z,21.83
2022-12-18T18:27:49.075Z,22.85
2022-12-18T18:30:19.063Z,21.25
2022-12-18T18:32:48.575Z,22.90
2022-12-18T18:35:45.047Z,21.67
2022-12-18T18:38:06.548Z,22.17
2022-12-18T18:40:35.020Z,25.75
2022-12-18T18:43:03.774Z,24.17
2022-12-18T18:45:35.509Z,23.05
2022-12-18T18:48:04.125Z,22.73
2022-12-18T18:50:32.659Z,20.77
2022-12-18T18:53:01.115Z,20.88
2022-12-18T18:55:29.836Z,23.88
2022-12-18T18:57:58.565Z,22.30
2022-12-18T19:00:28.709Z,22.90
2022-12-18T19:03:00.753Z,22.55
2022-12-18T19:05:32.062Z,21.55
2022-12-18T19:08:00.635Z,22.38
2022-12-18T19:10:29.120Z,29.17
2022-12-18T19:13:15.219Z,23.50
2022-12-18T19:15:43.778Z,20.73
2022-12-18T19:18:13.641Z,22.70
2022-12-18T19:20:42.255Z,22.83
2022-12-18T19:23:11.064Z,21.40
2022-12-18T19:25:42.262Z,22.67
2022-12-18T19:28:21.318Z,20.10
2022-12-18T19:30:58.669Z,21.20
2022-12-18T19:33:45.641Z,23.00
2022-12-18T19:36:19.487Z,21.02
2022-12-18T19:38:49.124Z,21.02
2022-12-18T19:41:18.464Z,20.52
2022-12-18T19:43:47.681Z,19.67
2022-12-18T19:46:18.955Z,19.25
2022-12-18T19:48:49.961Z,21.02
2022-12-18T19:51:20.459Z,20.70
2022-12-18T19:53:53.588Z,20.20
2022-12-18T19:56:28.917Z,19.40
2022-12-18T19:58:57.729Z,19.83
2022-12-18T20:01:28.206Z,20.67
2022-12-18T20:03:59.625Z,19.05
2022-12-18T20:06:31.047Z,18.95
2022-12-18T20:09:02.994Z,17.67
2022-12-18T20:11:32.526Z,22.20
2022-12-18T20:14:04.515Z,20.23
2022-12-18T20:16:33.140Z,19.23
2022-12-18T20:19:03.664Z,19.80
2022-12-18T20:21:32.415Z,19.13
2022-12-18T20:24:02.109Z,19.50
2022-12-18T20:26:31.120Z,17.63
2022-12-18T20:28:59.952Z,19.65
2022-12-18T20:31:28.485Z,21.83
2022-12-18T20:33:59.703Z,19.40
2022-12-18T20:36:32.842Z,22.77
2022-12-18T20:39:03.918Z,19.38
2022-12-18T20:41:38.375Z,21.08
2022-12-18T20:44:10.439Z,18.70
2022-12-18T20:46:51.003Z,18.15
2022-12-18T20:49:19.565Z,18.00
2022-12-18T20:51:52.692Z,20.60
2022-12-18T20:54:21.632Z,19.05
2022-12-18T20:56:50.167Z,20.33
2022-12-18T20:59:19.689Z,18.10
2022-12-18T21:01:49.474Z,20.50
2022-12-18T21:04:19.207Z,18.08
2022-12-18T21:06:52.997Z,19.63
2022-12-18T21:09:37.427Z,18.92
2022-12-18T21:12:25.820Z,19.08
2022-12-18T21:14:54.460Z,18.00
2022-12-18T21:17:22.972Z,18.67
2022-12-18T21:19:51.464Z,18.50
2022-12-18T21:22:20.616Z,18.45
2022-12-18T21:24:50.571Z,19.23
2022-12-18T21:27:19.617Z,19.63
2022-12-18T21:29:48.384Z,20.15
2022-12-18T21:32:19.102Z,18.40
2022-12-18T21:34:48.447Z,17.98
2022-12-18T21:37:17.091Z,19.70
2022-12-18T21:39:45.828Z,17.55
2022-12-18T21:42:33.470Z,18.05
2022-12-18T21:45:01.999Z,18.00
2022-12-18T21:47:30.454Z,17.58
2022-12-18T21:49:58.965Z,17.58
2022-12-18T21:52:31.331Z,17.10
2022-12-18T21:55:08.534Z,18.40
2022-12-18T21:57:40.208Z,18.17
2022-12-18T22:00:18.546Z,17.45
2022-12-18T22:03:17.116Z,18.10
2022-12-18T22:05:37.625Z,18.13
2022-12-18T22:08:06.962Z,18.20
2022-12-18T22:10:36.172Z,17.95
2022-12-18T22:13:07.169Z,16.63
2022-12-18T22:15:35.804Z,17.63
2022-12-18T22:18:04.389Z,18.25
2022-12-18T22:20:32.872Z,18.52
2022-12-18T22:23:05.725Z,18.83
2022-12-18T22:25:38.066Z,17.65
2022-12-18T22:28:27.008Z,29.63
2022-12-18T22:30:59.347Z,19.13
2022-12-18T22:33:29.071Z,16.70
2022-12-18T22:35:57.603Z,15.85
2022-12-18T22:38:27.092Z,17.60
2022-12-18T22:40:56.243Z,17.00
2022-12-18T22:43:26.421Z,17.35
2022-12-18T22:45:55.489Z,16.55
2022-12-18T22:48:24.137Z,16.98
2022-12-18T22:50:54.137Z,16.77
2022-12-18T22:53:28.636Z,17.85
2022-12-18T22:56:02.064Z,17.13
2022-12-18T22:58:31.904Z,16.73
2022-12-18T23:01:00.372Z,15.25
2022-12-18T23:03:28.953Z,16.73
2022-12-18T23:06:06.309Z,17.27
2022-12-18T23:08:35.678Z,16.17
2022-12-18T23:11:05.430Z,15.98
2022-12-18T23:13:36.133Z,15.73
2022-12-18T23:16:07.483Z,16.65
2022-12-18T23:18:36.858Z,16.50
2022-12-18T23:21:07.018Z,17.23
2022-12-18T23:23:36.417Z,16.35
2022-12-18T23:26:06.936Z,15.80
2022-12-18T23:28:38.275Z,15.27
2022-12-18T23:31:08.453Z,14.70
2022-12-18T23:33:37.254Z,17.35
2022-12-18T23:36:06.965Z,16.48
2022-12-18T23:38:36.478Z,16.15
2022-12-18T23:41:09.196Z,15.75
2022-12-18T23:43:39.437Z,15.25
2022-12-18T23:46:12.336Z,15.15
2022-12-18T23:48:41.438Z,15.52
2022-12-18T23:51:11.218Z,15.00
2022-12-18T23:53:41.129Z,14.70
2022-12-18T23:56:11.685Z,15.38
2022-12-18T23:58:43.028Z,16.05
